Time;durP1;ratioP1;P1;durP2;ratioP2;P2;SDS_P1;SDS_P2;PMS_P1;PMS_P2;Temp;Humidity;BMP_temperature;BMP_pressure;BME280_temperature;BME280_humidity;BME280_pressure;Samples;Min_cycle;Max_cycle;Signal;HPM_P1;HPM_P2
2023/08/25 00:01:30;;;;;;;5.00;4.00;;;;;;;15.88;77.14;100373.73;103829;276;38753;-73
2023/08/25 00:04:05;;;;;;;6.20;4.40;;;;;;;15.87;77.38;100373.96;104051;276;38611;-74
2023/08/25 00:06:39;;;;;;;7.30;4.80;;;;;;;15.88;77.37;100372.69;104008;276;38292;-73
2023/08/25 00:09:15;;;;;;;7.40;5.10;;;;;;;15.89;77.28;100373.67;104106;276;38278;-74
2023/08/25 00:11:50;;;;;;;9.00;5.40;;;;;;;15.86;77.40;100368.23;104012;276;38267;-73
2023/08/25 00:14:25;;;;;;;9.60;5.00;;;;;;;15.83;77.51;100367.40;104056;276;38299;-74
2023/08/25 00:17:04;;;;;;;8.40;5.40;;;;;;;15.80;77.57;100362.64;103902;276;172347;-73
2023/08/25 00:19:39;;;;;;;9.90;5.80;;;;;;;15.79;77.79;100357.77;104034;276;38467;-73
2023/08/25 00:22:14;;;;;;;7.60;5.20;;;;;;;15.80;78.14;100356.33;104081;276;38498;-74
2023/08/25 00:24:52;;;;;;;10.20;6.00;;;;;;;15.81;78.45;100352.21;103890;276;39924;-72
2023/08/25 00:27:27;;;;;;;9.30;5.50;;;;;;;15.81;78.56;100354.65;104120;276;39564;-72
2023/08/25 00:30:02;;;;;;;10.20;6.10;;;;;;;15.81;78.61;100355.70;103881;276;39690;-74
2023/08/25 00:32:37;;;;;;;12.10;5.60;;;;;;;15.82;78.78;100350.73;104055;276;38537;-73
2023/08/25 00:35:13;;;;;;;8.40;5.60;;;;;;;15.82;79.06;100343.71;103863;276;40155;-73
2023/08/25 00:37:47;;;;;;;8.70;5.90;;;;;;;15.82;78.88;100348.98;103858;276;38943;-72
2023/08/25 00:40:22;;;;;;;9.80;5.90;;;;;;;15.83;79.02;100347.35;103874;277;38235;-72
2023/08/25 00:42:56;;;;;;;9.20;5.40;;;;;;;15.81;78.78;100349.91;104061;276;39141;-74
2023/08/25 00:45:30;;;;;;;8.70;6.00;;;;;;;15.78;78.77;100353.26;103918;276;175093;-72
2023/08/25 00:48:05;;;;;;;9.60;6.40;;;;;;;15.76;78.96;100360.40;104098;275;38251;-74
2023/08/25 00:50:40;;;;;;;12.20;6.20;;;;;;;15.76;79.40;100360.92;103847;277;39670;-74
2023/08/25 00:53:16;;;;;;;11.10;6.70;;;;;;;15.76;79.20;100363.73;104075;276;38505;-73
2023/08/25 00:55:51;;;;;;;9.90;6.50;;;;;;;15.75;79.59;100368.73;103884;276;39425;-74
2023/08/25 00:58:26;;;;;;;11.30;6.70;;;;;;;15.75;79.94;100370.30;104055;276;39558;-74
2023/08/25 01:01:03;;;;;;;11.00;6.50;;;;;;;15.76;79.69;100376.05;104027;275;39921;-72
2023/08/25 01:03:39;;;;;;;12.10;7.30;;;;;;;15.75;79.69;100383.84;103861;276;38755;-73
2023/08/25 01:06:12;;;;;;;10.30;6.50;;;;;;;15.73;79.65;100386.27;104037;276;38576;-73
2023/08/25 01:08:47;;;;;;;10.90;6.70;;;;;;;15.67;79.68;100392.73;104055;276;39911;-74
2023/08/25 01:11:35;;;;;;;9.40;6.40;;;;;;;15.64;79.70;100396.09;104079;276;39664;-73
2023/08/25 01:14:21;;;;;;;10.10;6.10;;;;;;;15.60;79.82;100398.63;104047;276;39721;-74
2023/08/25 01:17:00;;;;;;;11.60;6.60;;;;;;;15.54;79.87;100405.27;103815;276;38239;-74
2023/08/25 01:19:58;;;;;;;7.40;5.80;;;;;;;15.48;79.90;100404.02;104056;276;38289;-72
2023/08/25 01:22:44;;;;;;;8.20;5.70;;;;;;;15.42;80.06;100395.41;104070;276;38242;-71
2023/08/25 01:25:27;;;;;;;9.90;6.40;;;;;;;15.38;80.10;100397.06;104026;276;38295;-74
2023/08/25 01:28:03;;;;;;;9.40;6.20;;;;;;;15.38;80.29;100394.77;103876;277;40368;-72
2023/08/25 01:30:37;;;;;;;9.40;6.10;;;;;;;15.36;80.44;100390.30;104050;276;38294;-73
2023/08/25 01:33:12;;;;;;;9.70;6.20;;;;;;;15.34;80.58;100386.02;104067;276;38666;-74
2023/08/25 01:36:01;;;;;;;9.30;5.80;;;;;;;15.34;80.76;100387.81;104016;265;40262;-73
2023/08/25 01:38:39;;;;;;;8.40;5.90;;;;;;;15.32;80.86;100384.41;104062;276;38246;-74
2023/08/25 01:41:18;;;;;;;9.80;5.60;;;;;;;15.34;81.18;100383.63;104069;275;39690;-74
2023/08/25 01:43:53;;;;;;;10.90;6.20;;;;;;;15.37;81.22;100380.59;104048;276;39463;-73
2023/08/25 01:46:27;;;;;;;9.60;6.30;;;;;;;15.38;81.34;100376.17;104027;275;39456;-73
2023/08/25 01:49:01;;;;;;;8.80;5.80;;;;;;;15.41;81.33;100370.33;103878;277;38288;-74
2023/08/25 01:51:35;;;;;;;6.40;5.20;;;;;;;15.43;81.60;100374.09;104029;276;38539;-72
2023/08/25 01:54:09;;;;;;;7.50;5.30;;;;;;;15.47;81.82;100373.50;104068;275;38479;-74
2023/08/25 01:56:43;;;;;;;9.90;5.30;;;;;;;15.53;81.74;100369.68;104018;276;38237;-74
2023/08/25 01:59:17;;;;;;;7.10;5.60;;;;;;;15.54;81.66;100363.95;104055;276;38456;-72
2023/08/25 02:01:52;;;;;;;18.40;6.00;;;;;;;15.57;81.70;100360.26;104013;275;39420;-72
2023/08/25 02:04:26;;;;;;;8.40;5.60;;;;;;;15.60;81.72;100352.02;104058;275;37968;-74
2023/08/25 02:07:02;;;;;;;9.00;5.40;;;;;;;15.62;81.81;100347.30;104030;276;39481;-73
2023/08/25 02:09:36;;;;;;;8.40;5.40;;;;;;;15.66;82.01;100343.60;103998;276;38265;-71
2023/08/25 02:12:12;;;;;;;8.50;5.90;;;;;;;15.67;81.94;100340.39;104059;275;38304;-72
2023/08/25 02:14:46;;;;;;;8.10;5.50;;;;;;;15.70;82.31;100331.70;103910;276;175074;-74
2023/08/25 02:17:20;;;;;;;7.00;5.10;;;;;;;15.80;82.55;100325.89;104065;275;39866;-72
2023/08/25 02:19:54;;;;;;;8.90;5.70;;;;;;;15.87;82.58;100315.98;104029;275;38898;-73
2023/08/25 02:22:28;;;;;;;9.40;5.40;;;;;;;15.92;82.53;100316.16;104088;275;39433;-71
2023/08/25 02:25:02;;;;;;;9.60;6.00;;;;;;;15.98;82.50;100315.60;104047;276;39403;-72
2023/08/25 02:27:36;;;;;;;7.00;5.50;;;;;;;16.06;82.45;100311.25;104103;275;38854;-72
2023/08/25 02:30:13;;;;;;;8.10;5.90;;;;;;;16.14;82.40;100304.60;104013;275;38696;-72
2023/08/25 02:32:47;;;;;;;6.50;5.40;;;;;;;16.20;82.24;100303.52;104091;276;38247;-74
2023/08/25 02:35:21;;;;;;;6.30;5.30;;;;;;;16.25;82.33;100301.60;104019;275;39425;-72
2023/08/25 02:38:04;;;;;;;8.50;5.30;;;;;;;16.29;82.31;100298.39;104057;275;39563;-73
2023/08/25 02:40:38;;;;;;;9.20;4.90;;;;;;;16.31;82.34;100293.49;104037;275;38538;-73
2023/08/25 02:43:12;;;;;;;9.10;4.90;;;;;;;16.34;82.27;100295.41;104032;275;38288;-71
2023/08/25 02:45:46;;;;;;;7.70;4.70;;;;;;;16.38;82.28;100295.71;104004;275;38551;-72
2023/08/25 02:48:20;;;;;;;6.70;4.70;;;;;;;16.39;82.27;100286.10;104041;275;39589;-73
2023/08/25 02:50:54;;;;;;;7.20;4.90;;;;;;;16.41;82.48;100280.53;104082;276;38794;-71
2023/08/25 02:53:28;;;;;;;8.00;4.30;;;;;;;16.43;82.42;100280.62;104045;275;38487;-72
2023/08/25 02:56:03;;;;;;;10.10;4.70;;;;;;;16.44;82.42;100278.96;103712;276;188930;-74
2023/08/25 02:58:37;;;;;;;8.10;4.90;;;;;;;16.45;82.62;100280.79;103948;275;171942;-73
2023/08/25 03:01:16;;;;;;;6.50;4.70;;;;;;;16.45;82.37;100287.48;104023;275;39000;-74
2023/08/25 03:03:50;;;;;;;6.70;5.20;;;;;;;16.45;82.39;100291.90;104046;276;39613;-72
2023/08/25 03:06:24;;;;;;;8.00;4.70;;;;;;;16.42;82.11;100296.84;104039;276;39414;-74
2023/08/25 03:08:58;;;;;;;4.90;4.30;;;;;;;16.39;82.13;100293.02;104062;275;39431;-73
2023/08/25 03:11:31;;;;;;;7.80;5.00;;;;;;;16.37;82.31;100293.30;103932;275;175010;-71
2023/08/25 03:14:06;;;;;;;8.90;4.90;;;;;;;16.36;82.19;100295.15;104047;275;39422;-74
2023/08/25 03:16:40;;;;;;;5.00;4.40;;;;;;;16.34;82.27;100293.83;104034;275;38252;-73
2023/08/25 03:19:14;;;;;;;6.30;4.40;;;;;;;16.33;82.07;100293.06;104061;275;38221;-72
2023/08/25 03:21:48;;;;;;;5.70;4.20;;;;;;;16.32;82.03;100293.27;104038;275;39331;-73
2023/08/25 03:24:22;;;;;;;8.00;4.60;;;;;;;16.32;82.17;100290.82;103863;276;40423;-74
2023/08/25 03:26:59;;;;;;;8.40;4.80;;;;;;;16.30;82.14;100285.83;104029;276;39471;-72
2023/08/25 03:29:33;;;;;;;8.00;4.20;;;;;;;16.32;82.40;100286.45;104052;276;38482;-73
2023/08/25 03:32:08;;;;;;;5.40;4.30;;;;;;;16.32;82.41;100285.40;104066;276;39920;-72
2023/08/25 03:34:42;;;;;;;6.00;4.60;;;;;;;16.32;82.53;100287.83;104033;276;39814;-74
2023/08/25 03:37:16;;;;;;;5.70;4.80;;;;;;;16.33;82.28;100284.62;104066;276;38255;-73
2023/08/25 03:39:50;;;;;;;7.70;5.30;;;;;;;16.34;82.69;100285.25;104011;276;38230;-71
2023/08/25 03:42:25;;;;;;;5.90;4.80;;;;;;;16.36;82.73;100283.01;104056;276;38283;-72
2023/08/25 03:44:58;;;;;;;8.40;5.20;;;;;;;16.38;82.65;100286.02;104038;276;39666;-73
2023/08/25 03:47:32;;;;;;;6.40;4.40;;;;;;;16.40;82.84;100290.10;103901;276;38278;-72
2023/08/25 03:50:08;;;;;;;6.80;4.30;;;;;;;16.43;82.93;100286.02;104030;276;39406;-74
2023/08/25 03:52:42;;;;;;;6.60;4.20;;;;;;;16.47;82.87;100287.95;104022;276;38354;-71
2023/08/25 03:55:16;;;;;;;7.30;4.70;;;;;;;16.49;83.05;100287.55;103997;276;39727;-71
2023/08/25 03:57:50;;;;;;;5.60;4.60;;;;;;;16.53;83.06;100291.23;104077;275;38551;-72
2023/08/25 04:00:24;;;;;;;5.00;4.50;;;;;;;16.56;83.15;100291.06;103861;276;38908;-74
2023/08/25 04:02:59;;;;;;;6.10;4.30;;;;;;;16.59;83.16;100286.29;104071;275;38502;-73
2023/08/25 04:05:34;;;;;;;5.30;4.50;;;;;;;16.63;83.19;100284.57;104049;275;39072;-72
2023/08/25 04:08:10;;;;;;;8.70;4.30;;;;;;;16.66;83.23;100282.80;104057;275;38756;-72
2023/08/25 04:10:47;;;;;;;5.20;4.70;;;;;;;16.70;83.19;100281.83;104028;275;38988;-72
2023/08/25 04:13:21;;;;;;;6.60;4.80;;;;;;;16.74;83.32;100283.02;103938;276;175009;-72
2023/08/25 04:16:01;;;;;;;7.20;4.80;;;;;;;16.79;83.20;100281.14;104060;275;38529;-72
2023/08/25 04:18:35;;;;;;;7.40;4.90;;;;;;;16.86;83.32;100280.48;103981;275;175017;-75
2023/08/25 04:21:09;;;;;;;6.50;5.70;;;;;;;16.94;83.12;100279.27;104063;275;38277;-73
2023/08/25 04:23:43;;;;;;;7.50;5.80;;;;;;;17.02;83.20;100274.33;103955;275;39704;-74
2023/08/25 04:26:17;;;;;;;6.40;5.70;;;;;;;17.11;82.82;100272.88;104010;277;39428;-73
2023/08/25 04:28:52;;;;;;;6.80;5.80;;;;;;;17.19;82.55;100272.32;104066;275;38962;-73
2023/08/25 04:31:26;;;;;;;6.30;5.60;;;;;;;17.27;82.23;100270.69;104034;275;38237;-72
2023/08/25 04:34:01;;;;;;;7.20;5.80;;;;;;;17.36;82.05;100271.52;104057;275;39991;-72
2023/08/25 04:36:36;;;;;;;7.10;5.20;;;;;;;17.45;81.68;100265.75;103913;275;174938;-73
2023/08/25 04:39:11;;;;;;;7.80;6.10;;;;;;;17.55;81.50;100266.02;104078;276;38897;-73
2023/08/25 04:41:44;;;;;;;7.00;5.70;;;;;;;17.64;81.21;100260.42;103999;275;39299;-73
2023/08/25 04:44:19;;;;;;;8.60;5.80;;;;;;;17.71;80.80;100253.95;104048;275;38543;-72
2023/08/25 04:46:52;;;;;;;7.50;5.30;;;;;;;17.77;80.74;100245.73;103930;276;174946;-73
2023/08/25 04:49:27;;;;;;;7.30;5.00;;;;;;;17.88;80.58;100240.63;104077;276;39431;-73
2023/08/25 04:52:05;;;;;;;6.30;4.90;;;;;;;17.97;80.54;100236.61;104032;275;39005;-72
2023/08/25 04:54:39;;;;;;;8.30;5.70;;;;;;;18.07;80.34;100235.21;103997;275;38012;-75
2023/08/25 04:57:13;;;;;;;6.80;5.50;;;;;;;18.17;79.94;100229.55;104015;276;38277;-72
2023/08/25 04:59:47;;;;;;;7.10;5.30;;;;;;;18.26;79.68;100227.09;104007;275;38306;-72
2023/08/25 05:02:21;;;;;;;9.10;5.80;;;;;;;18.35;79.32;100224.91;104060;274;38520;-72
2023/08/25 05:04:55;;;;;;;7.20;5.50;;;;;;;18.44;78.71;100221.08;104016;275;38511;-72
2023/08/25 05:07:29;;;;;;;8.60;6.10;;;;;;;18.52;78.41;100224.30;104069;275;38867;-73
2023/08/25 05:10:03;;;;;;;8.90;5.50;;;;;;;18.61;78.13;100224.37;104043;276;38393;-72
2023/08/25 05:12:38;;;;;;;7.60;5.70;;;;;;;18.69;77.61;100226.33;104082;276;38550;-75
2023/08/25 05:15:15;;;;;;;9.10;6.40;;;;;;;18.75;77.30;100227.04;104006;276;39657;-74
2023/08/25 05:17:49;;;;;;;8.10;6.00;;;;;;;18.82;77.05;100221.56;104096;276;38278;-73
2023/08/25 05:20:23;;;;;;;10.70;6.30;;;;;;;18.92;76.80;100223.14;104026;275;39449;-72
2023/08/25 05:22:57;;;;;;;9.20;5.80;;;;;;;19.03;76.69;100222.70;104086;276;38743;-74
2023/08/25 05:25:31;;;;;;;6.70;6.00;;;;;;;19.14;76.56;100224.69;104027;276;38756;-73
2023/08/25 05:28:06;;;;;;;10.20;6.50;;;;;;;19.24;76.24;100222.14;104114;276;38995;-74
2023/08/25 05:30:40;;;;;;;11.80;6.70;;;;;;;19.33;75.82;100219.31;104037;276;39408;-73
2023/08/25 05:33:14;;;;;;;8.00;6.00;;;;;;;19.45;75.45;100215.06;104102;276;39140;-74
2023/08/25 05:35:48;;;;;;;8.30;5.70;;;;;;;19.56;74.98;100210.59;104048;276;38532;-72
2023/08/25 05:38:22;;;;;;;8.60;6.50;;;;;;;19.69;74.65;100208.09;104058;274;38293;-72
2023/08/25 05:40:56;;;;;;;9.10;6.60;;;;;;;19.82;74.38;100212.36;104052;276;38864;-73
2023/08/25 05:43:31;;;;;;;11.00;6.80;;;;;;;19.98;74.24;100206.29;104052;264;38919;-73
2023/08/25 05:46:05;;;;;;;9.40;7.00;;;;;;;20.16;73.93;100204.27;103977;276;38286;-74
2023/08/25 05:48:40;;;;;;;9.50;7.20;;;;;;;20.35;73.26;100198.18;104063;276;38361;-72
2023/08/25 05:51:14;;;;;;;10.50;8.60;;;;;;;20.54;72.62;100196.94;104019;276;38727;-74
2023/08/25 05:53:48;;;;;;;10.90;8.60;;;;;;;20.70;71.57;100191.42;104079;276;39152;-73
2023/08/25 05:56:22;;;;;;;10.00;8.50;;;;;;;20.82;70.72;100191.48;104032;276;38380;-73
2023/08/25 05:58:59;;;;;;;9.70;7.60;;;;;;;20.90;70.22;100185.47;104087;276;39685;-72
2023/08/25 06:01:33;;;;;;;11.10;8.20;;;;;;;21.01;69.74;100180.70;103984;275;38331;-72
2023/08/25 06:04:08;;;;;;;10.10;8.40;;;;;;;21.09;68.84;100176.46;104044;275;38690;-72
2023/08/25 06:06:42;;;;;;;14.30;8.10;;;;;;;21.17;68.56;100172.79;104031;276;38259;-74
2023/08/25 06:09:17;;;;;;;10.90;7.60;;;;;;;21.23;68.21;100172.77;103974;276;174818;-72
2023/08/25 06:11:53;;;;;;;10.80;8.20;;;;;;;21.30;68.37;100169.69;104052;275;39548;-74
2023/08/25 06:14:27;;;;;;;8.40;7.40;;;;;;;21.39;68.15;100174.08;104105;276;39667;-73
2023/08/25 06:17:05;;;;;;;13.50;8.50;;;;;;;21.50;67.83;100176.16;104020;276;38267;-73
2023/08/25 06:19:38;;;;;;;10.40;8.20;;;;;;;21.61;67.59;100172.30;104008;276;38534;-72
2023/08/25 06:22:12;;;;;;;9.30;7.70;;;;;;;21.76;67.60;100165.34;104084;275;38380;-73
2023/08/25 06:24:47;;;;;;;12.00;7.60;;;;;;;21.93;67.25;100162.92;104031;275;38625;-73
2023/08/25 06:27:21;;;;;;;9.40;7.30;;;;;;;22.08;66.67;100166.70;104006;275;38866;-72
2023/08/25 06:29:55;;;;;;;11.20;7.60;;;;;;;22.22;66.15;100171.21;104027;275;38485;-72
2023/08/25 06:32:28;;;;;;;10.50;7.10;;;;;;;22.33;65.55;100165.59;104051;275;38275;-73
2023/08/25 06:35:02;;;;;;;11.90;7.60;;;;;;;22.43;65.13;100159.33;104035;276;38897;-72
2023/08/25 06:37:37;;;;;;;12.20;7.70;;;;;;;22.49;64.23;100159.31;104025;275;38740;-73
2023/08/25 06:40:15;;;;;;;10.40;7.50;;;;;;;22.54;63.87;100155.09;104029;275;38590;-74
2023/08/25 06:42:49;;;;;;;10.80;7.90;;;;;;;22.58;63.37;100157.64;104056;275;39423;-73
2023/08/25 06:45:23;;;;;;;13.80;7.60;;;;;;;22.58;63.16;100157.10;104046;275;39009;-74
2023/08/25 06:47:58;;;;;;;13.00;7.50;;;;;;;22.60;63.23;100158.52;104088;275;38726;-73
2023/08/25 06:50:31;;;;;;;11.80;7.20;;;;;;;22.59;63.02;100160.40;104034;275;39977;-73
2023/08/25 06:53:07;;;;;;;9.60;7.20;;;;;;;22.56;62.95;100151.38;104031;275;39340;-73
2023/08/25 06:55:42;;;;;;;12.90;7.40;;;;;;;22.53;62.65;100155.96;104008;275;38261;-73
2023/08/25 06:58:17;;;;;;;9.50;7.50;;;;;;;22.48;62.76;100159.06;104100;275;38287;-73
2023/08/25 07:00:51;;;;;;;10.70;7.30;;;;;;;22.46;62.78;100159.48;104024;275;38538;-72
2023/08/25 07:03:25;;;;;;;8.70;7.70;;;;;;;22.42;62.90;100154.79;103393;276;804322;-73
2023/08/25 07:06:02;;;;;;;9.20;7.70;;;;;;;22.39;62.87;100153.33;104021;276;38789;-73
2023/08/25 07:08:37;;;;;;;10.60;8.20;;;;;;;22.35;62.94;100160.83;104084;275;38625;-73
2023/08/25 07:11:11;;;;;;;8.80;7.30;;;;;;;22.32;63.14;100159.23;103985;275;38230;-73
2023/08/25 07:13:45;;;;;;;10.60;7.60;;;;;;;22.31;63.26;100157.55;104033;276;39536;-72
2023/08/25 07:16:19;;;;;;;9.80;8.10;;;;;;;22.34;63.61;100150.38;104045;275;38537;-72
2023/08/25 07:18:53;;;;;;;8.30;7.20;;;;;;;22.41;63.76;100154.39;104032;276;39701;-73
2023/08/25 07:21:27;;;;;;;11.00;6.80;;;;;;;22.51;63.68;100152.60;104023;275;38621;-72
2023/08/25 07:24:02;;;;;;;9.00;7.20;;;;;;;22.62;63.49;100147.66;104059;276;39341;-73
2023/08/25 07:26:36;;;;;;;10.70;8.10;;;;;;;22.72;63.42;100150.69;104033;275;39511;-72
2023/08/25 07:29:10;;;;;;;13.60;7.90;;;;;;;22.82;63.15;100149.39;104098;275;39234;-73
2023/08/25 07:31:44;;;;;;;10.80;8.30;;;;;;;22.88;62.88;100149.15;103892;276;40019;-75
2023/08/25 07:34:18;;;;;;;10.50;7.60;;;;;;;22.94;62.85;100144.33;103826;279;38491;-73
2023/08/25 07:36:52;;;;;;;10.30;7.80;;;;;;;22.99;62.55;100144.64;104001;276;40399;-73
2023/08/25 07:39:26;;;;;;;10.50;7.60;;;;;;;23.02;62.35;100141.27;104091;275;38255;-72
2023/08/25 07:42:04;;;;;;;14.10;7.40;;;;;;;23.06;62.23;100137.39;104018;276;38646;-72
2023/08/25 07:44:38;;;;;;;10.20;7.00;;;;;;;23.06;61.80;100136.08;104006;276;38659;-73
2023/08/25 07:47:12;;;;;;;10.50;7.20;;;;;;;23.04;61.62;100132.72;104070;276;38328;-73
2023/08/25 07:49:46;;;;;;;12.90;7.40;;;;;;;23.02;61.39;100131.33;103853;276;38254;-73
2023/08/25 07:52:20;;;;;;;9.00;7.10;;;;;;;23.02;60.98;100130.85;103843;276;39514;-73
2023/08/25 07:54:54;;;;;;;10.90;7.40;;;;;;;23.00;61.07;100128.13;104017;276;38499;-73
2023/08/25 07:57:30;;;;;;;12.10;6.70;;;;;;;23.00;60.74;100127.11;103904;276;39423;-73
2023/08/25 08:00:04;;;;;;;12.00;7.10;;;;;;;22.98;60.70;100126.25;104030;276;39885;-73
2023/08/25 08:02:38;;;;;;;13.30;7.00;;;;;;;22.98;60.79;100126.79;103841;276;38275;-73
2023/08/25 08:05:14;;;;;;;11.10;7.20;;;;;;;23.00;60.81;100120.70;104023;276;38766;-73
2023/08/25 08:07:48;;;;;;;8.70;6.60;;;;;;;23.01;61.01;100120.21;103943;276;174307;-74
2023/08/25 08:10:22;;;;;;;8.10;6.70;;;;;;;23.04;60.79;100116.23;103856;276;38266;-73
2023/08/25 08:12:56;;;;;;;12.30;7.30;;;;;;;23.05;60.74;100117.33;104049;276;38476;-72
2023/08/25 08:15:31;;;;;;;12.40;6.80;;;;;;;23.06;60.80;100118.47;104032;276;38236;-72
2023/08/25 08:18:06;;;;;;;10.20;7.20;;;;;;;23.09;60.71;100110.57;104093;276;38359;-73
2023/08/25 08:20:39;;;;;;;12.00;7.20;;;;;;;23.16;60.67;100112.61;104057;276;38707;-73
2023/08/25 08:23:13;;;;;;;12.40;8.00;;;;;;;23.24;60.41;100114.31;104105;276;39170;-72
2023/08/25 08:25:47;;;;;;;9.10;6.70;;;;;;;23.35;60.38;100118.80;104058;276;38545;-72
2023/08/25 08:28:21;;;;;;;9.90;6.70;;;;;;;23.45;60.25;100116.73;104031;276;38340;-72
2023/08/25 08:30:58;;;;;;;11.80;6.90;;;;;;;23.54;59.63;100118.57;103883;276;39865;-72
2023/08/25 08:33:32;;;;;;;10.20;6.80;;;;;;;23.59;59.08;100113.77;104082;276;38626;-72
2023/08/25 08:36:07;;;;;;;9.10;7.30;;;;;;;23.63;58.72;100113.74;104075;276;39125;-72
2023/08/25 08:38:41;;;;;;;7.60;6.40;;;;;;;23.65;58.37;100115.16;104055;264;38358;-73
2023/08/25 08:41:16;;;;;;;8.50;6.70;;;;;;;23.67;58.22;100116.91;104017;276;38261;-73
2023/08/25 08:43:51;;;;;;;7.40;6.50;;;;;;;23.68;57.94;100116.49;104076;275;38262;-73
2023/08/25 08:46:25;;;;;;;8.20;6.50;;;;;;;23.69;57.99;100115.19;104034;276;38748;-73
2023/08/25 08:48:59;;;;;;;9.90;7.10;;;;;;;23.70;57.76;100115.08;104069;276;38257;-73
2023/08/25 08:51:33;;;;;;;8.80;6.80;;;;;;;23.70;57.37;100109.56;104033;275;39223;-73
2023/08/25 08:54:07;;;;;;;8.30;6.50;;;;;;;23.70;57.30;100114.57;104057;275;38386;-73
2023/08/25 08:56:41;;;;;;;8.80;6.60;;;;;;;23.70;57.47;100112.05;104038;276;38474;-73
2023/08/25 08:59:16;;;;;;;10.10;6.50;;;;;;;23.72;57.84;100108.65;103897;276;38439;-73
2023/08/25 09:01:51;;;;;;;8.70;6.50;;;;;;;23.76;57.84;100113.95;103863;277;39967;-73
2023/08/25 09:04:24;;;;;;;8.10;6.70;;;;;;;23.80;57.75;100111.93;104084;276;39661;-73
2023/08/25 09:07:01;;;;;;;8.80;6.40;;;;;;;23.83;57.36;100114.52;104067;275;39404;-73
2023/08/25 09:09:35;;;;;;;9.90;6.60;;;;;;;23.88;57.42;100111.50;104012;275;40082;-73
2023/08/25 09:12:10;;;;;;;9.90;6.30;;;;;;;23.92;57.16;100112.85;104014;276;38471;-73
2023/08/25 09:14:45;;;;;;;8.00;6.50;;;;;;;23.93;56.65;100107.86;103980;276;38631;-73
2023/08/25 09:17:19;;;;;;;10.90;6.70;;;;;;;23.92;56.77;100114.02;104041;276;38307;-73
2023/08/25 09:19:53;;;;;;;7.70;6.50;;;;;;;23.91;56.82;100114.59;104030;276;39932;-72
2023/08/25 09:22:27;;;;;;;13.90;6.80;;;;;;;23.91;56.71;100118.36;103862;276;38865;-73
2023/08/25 09:25:03;;;;;;;8.80;6.50;;;;;;;23.90;56.66;100116.30;104034;276;38693;-73
2023/08/25 09:27:37;;;;;;;7.20;6.10;;;;;;;23.91;56.78;100114.64;104055;276;39444;-75
2023/08/25 09:30:14;;;;;;;9.40;6.80;;;;;;;23.92;56.91;100113.77;104040;276;39617;-73
2023/08/25 09:32:48;;;;;;;8.40;6.60;;;;;;;23.95;57.16;100110.50;104031;276;38774;-74
2023/08/25 09:35:22;;;;;;;8.60;6.80;;;;;;;24.00;57.35;100109.83;104050;275;39504;-74
2023/08/25 09:37:56;;;;;;;9.30;6.20;;;;;;;24.07;57.63;100103.92;104034;276;39898;-73
2023/08/25 09:40:30;;;;;;;10.00;6.50;;;;;;;24.14;57.43;100095.45;104020;276;38699;-73
2023/08/25 09:43:05;;;;;;;10.20;6.70;;;;;;;24.21;57.20;100092.73;104035;276;38844;-73
2023/08/25 09:45:40;;;;;;;12.90;6.30;;;;;;;24.29;56.72;100091.97;103876;276;40836;-74
2023/08/25 09:48:17;;;;;;;6.90;6.20;;;;;;;24.37;56.82;100090.14;103920;275;174608;-73
2023/08/25 09:50:52;;;;;;;9.20;5.70;;;;;;;24.47;56.70;100087.55;104054;275;39619;-73
2023/08/25 09:53:26;;;;;;;7.50;5.90;;;;;;;24.56;56.33;100084.52;104010;276;38461;-73
2023/08/25 09:56:05;;;;;;;10.20;6.30;;;;;;;24.59;55.92;100081.86;104033;276;39434;-73
2023/08/25 09:58:40;;;;;;;7.30;6.30;;;;;;;24.59;55.70;100076.80;104065;275;39002;-73
2023/08/25 10:01:14;;;;;;;7.20;6.00;;;;;;;24.60;55.69;100069.29;104035;276;38851;-74
2023/08/25 10:03:48;;;;;;;6.30;5.60;;;;;;;24.60;55.70;100071.96;104086;276;39843;-75
2023/08/25 10:06:22;;;;;;;9.60;5.80;;;;;;;24.58;55.22;100070.58;104051;276;38629;-75
2023/08/25 10:08:56;;;;;;;9.90;6.10;;;;;;;24.53;55.35;100068.90;104060;276;38413;-74
2023/08/25 10:11:35;;;;;;;7.90;6.10;;;;;;;24.47;55.14;100065.23;104056;276;39419;-73
2023/08/25 10:14:10;;;;;;;8.00;5.70;;;;;;;24.39;55.13;100066.08;104025;275;39419;-72
2023/08/25 10:16:50;;;;;;;10.00;6.70;;;;;;;24.34;55.31;100062.98;104035;276;38759;-73
2023/08/25 10:19:28;;;;;;;7.40;6.20;;;;;;;24.29;55.29;100061.85;103845;276;40178;-72
2023/08/25 10:22:02;;;;;;;8.90;6.10;;;;;;;24.23;55.31;100061.94;104043;275;38295;-72
2023/08/25 10:24:37;;;;;;;9.90;5.90;;;;;;;24.17;55.19;100058.73;104022;275;39280;-74
2023/08/25 10:27:11;;;;;;;10.60;5.90;;;;;;;24.12;55.36;100062.27;104063;276;38598;-74
2023/08/25 10:29:45;;;;;;;7.70;5.90;;;;;;;24.10;55.57;100059.99;103986;265;38310;-72
2023/08/25 10:32:19;;;;;;;9.00;5.70;;;;;;;24.11;55.47;100061.20;103865;276;38578;-72
2023/08/25 10:34:56;;;;;;;11.00;6.50;;;;;;;24.11;55.61;100059.32;103850;276;38384;-73
2023/08/25 10:37:32;;;;;;;9.40;6.10;;;;;;;24.12;55.50;100064.75;104044;276;39161;-73
2023/08/25 10:40:12;;;;;;;9.40;5.70;;;;;;;24.11;55.65;100064.86;104084;275;39102;-73
2023/08/25 10:42:46;;;;;;;7.10;6.20;;;;;;;24.11;55.84;100068.65;103929;275;171940;-72
2023/08/25 10:45:22;;;;;;;8.70;6.20;;;;;;;24.10;56.01;100072.64;104008;276;38990;-73
2023/08/25 10:47:56;;;;;;;8.50;5.90;;;;;;;24.10;56.21;100078.55;104044;275;38257;-73
2023/08/25 10:50:31;;;;;;;8.00;5.40;;;;;;;24.09;56.17;100081.16;104005;275;39688;-74
2023/08/25 10:53:05;;;;;;;7.50;5.40;;;;;;;24.06;56.34;100086.07;104048;276;39380;-73
2023/08/25 10:55:39;;;;;;;8.90;6.10;;;;;;;24.00;56.11;100095.95;104032;275;38349;-72
2023/08/25 10:58:14;;;;;;;10.80;5.90;;;;;;;23.92;56.33;100101.84;104069;275;38569;-72
2023/08/25 11:00:48;;;;;;;8.00;5.80;;;;;;;23.89;56.81;100098.79;104027;276;41669;-73
2023/08/25 11:03:36;;;;;;;6.70;6.00;;;;;;;23.84;57.22;100095.13;104017;275;38806;-72
2023/08/25 11:06:29;;;;;;;9.50;6.30;;;;;;;23.81;57.19;100089.77;103835;265;39472;-73
2023/08/25 11:09:03;;;;;;;10.60;7.50;;;;;;;23.79;57.32;100087.89;103932;275;39093;-72
2023/08/25 11:11:38;;;;;;;8.10;6.50;;;;;;;23.79;57.36;100086.79;104030;275;39193;-72
2023/08/25 11:14:12;;;;;;;10.10;6.20;;;;;;;23.79;57.30;100074.30;104033;275;38535;-73
2023/08/25 11:16:47;;;;;;;7.00;5.80;;;;;;;23.83;57.50;100069.65;104019;275;38234;-73
2023/08/25 11:19:21;;;;;;;10.00;6.40;;;;;;;23.85;56.95;100073.92;104063;275;39425;-73
2023/08/25 11:22:09;;;;;;;9.60;5.80;;;;;;;23.85;57.08;100081.19;103856;276;39376;-73
2023/08/25 11:24:45;;;;;;;9.40;6.60;;;;;;;23.87;57.30;100082.96;104042;276;38548;-73
2023/08/25 11:27:20;;;;;;;9.60;6.60;;;;;;;23.89;57.18;100084.84;104049;276;38425;-73
2023/08/25 11:29:56;;;;;;;7.60;6.10;;;;;;;23.88;56.58;100092.07;104042;276;39581;-73
2023/08/25 11:32:31;;;;;;;9.60;6.30;;;;;;;23.85;57.05;100086.15;104030;276;38234;-73
2023/08/25 11:35:11;;;;;;;9.30;6.20;;;;;;;23.83;57.44;100068.92;104034;276;38454;-72
2023/08/25 11:37:45;;;;;;;7.70;5.90;;;;;;;23.82;57.15;100066.02;104045;276;39393;-73
2023/08/25 11:40:23;;;;;;;8.50;6.30;;;;;;;23.80;57.23;100069.40;104020;276;38334;-73
2023/08/25 11:42:57;;;;;;;8.60;5.90;;;;;;;23.77;57.35;100079.68;104084;276;38827;-74
2023/08/25 11:45:31;;;;;;;7.80;5.70;;;;;;;23.73;57.38;100082.72;104031;276;39483;-73
2023/08/25 11:48:06;;;;;;;6.90;5.30;;;;;;;23.69;57.59;100084.52;103869;278;39005;-73
2023/08/25 11:50:41;;;;;;;6.70;5.50;;;;;;;23.65;57.85;100074.73;104031;276;38810;-72
2023/08/25 11:53:16;;;;;;;7.90;5.80;;;;;;;23.62;58.23;100073.60;104089;276;38502;-72
2023/08/25 11:56:07;;;;;;;9.10;6.00;;;;;;;23.64;58.40;100071.48;103833;277;38553;-73
2023/08/25 11:58:41;;;;;;;7.60;5.60;;;;;;;23.74;58.92;100069.13;103852;276;38543;-72